Weather reports worldwide

Advertisment
Katesbridge, United Kingdom (99014): temperature & dewpoint: 10.01.2021 06:00:00 - 16.01.2021 06:00:00 (GMT)Katesbridge, United Kingdom (99014): wind speed & gusts: 10.01.2021 06:00:00 - 16.01.2021 06:00:00 (GMT)Katesbridge, United Kingdom (99014): wind direction: 10.01.2021 06:00:00 - 16.01.2021 06:00:00 (GMT)Katesbridge, United Kingdom (99014): sunshine duration: 10.01.2021 06:00:00 - 16.01.2021 06:00:00 (GMT)Katesbridge, United Kingdom (99014): precipitation: 10.01.2021 06:00:00 - 16.01.2021 06:00:00 (GMT)
Date & Time tt [°C] td [°C] ff [km/h] ff [kn] fx [km/h] fx [kn] dd sd [min] rr [mm]
16.01.2021 06:00:00 - - - - - - - - -
16.01.2021 05:00:00 7,5 5,9 18 10 - - W 0 0,0
16.01.2021 04:00:00 9,0 7,8 18 10 - - W 0 0,0
16.01.2021 03:00:00 8,9 8,5 21 11 - - SW 0 0,2
16.01.2021 02:00:00 8,0 7,3 24 13 54 29 SSW 0 0,4
16.01.2021 01:00:00 7,9 7,1 28 15 57 31 SSW 0 0,4
16.01.2021 00:00:00 7,9 7,0 35 19 67 36 S - 1,2
15.01.2021 23:00:00 7,7 6,8 34 18 61 33 S 0 1,2
15.01.2021 22:00:00 7,4 6,5 35 19 61 33 S 0 0,8
15.01.2021 21:00:00 7,2 6,2 29 16 54 29 S 0 0,2
15.01.2021 20:00:00 7,0 5,6 24 13 59 32 S 0 0,0
15.01.2021 19:00:00 7,0 5,3 21 11 - - S 0 0,0
15.01.2021 18:00:00 6,9 5,0 18 10 - - S 0 0,0
15.01.2021 17:00:00 6,7 4,5 24 13 - - S 0 0,0
15.01.2021 16:00:00 6,6 4,3 21 11 - - S 0 0,0
15.01.2021 15:00:00 6,6 4,4 21 11 - - S 0 0,0
15.01.2021 14:00:00 6,4 4,2 18 10 - - S 0 0,0
15.01.2021 13:00:00 6,0 4,4 15 8 - - S 0 0,2
15.01.2021 12:00:00 4,7 4,6 11 6 - - S 0 0,0
15.01.2021 11:00:00 1,3 1,3 4 2 - - SE 0 0,0
15.01.2021 10:00:00 -0,6 -0,6 4 2 - - ESE 0 0,0
15.01.2021 09:00:00 -1,9 -2,0 0 0 - - N 0 0,0
15.01.2021 08:00:00 -2,1 -2,2 2 1 - - ESE 0 0,0
15.01.2021 07:00:00 -1,8 -1,9 4 2 - - ESE 0 0,0
15.01.2021 06:00:00 -2,7 -2,9 0 0 - - N 0 0,0
15.01.2021 05:00:00 -2,0 -2,1 0 0 - - N 0 0,0
15.01.2021 04:00:00 -1,2 -1,3 2 1 - - E 0 0,0
15.01.2021 03:00:00 -1,1 -1,3 2 1 - - NNE 0 0,0
15.01.2021 02:00:00 0,7 0,5 2 1 - - E 0 0,0
15.01.2021 01:00:00 1,7 1,6 2 1 - - ENE 0 0,0
15.01.2021 00:00:00 1,1 0,9 2 1 - - W - 0,0
14.01.2021 23:00:00 1,6 1,3 2 1 - - E 0 0,0
14.01.2021 22:00:00 3,2 3,0 4 2 - - N 0 0,0
14.01.2021 21:00:00 2,7 2,4 4 2 - - NE 0 0,0
14.01.2021 20:00:00 2,5 2,2 4 2 - - NW 0 0,0
14.01.2021 19:00:00 2,6 1,5 0 0 - - N 0 0,0
14.01.2021 18:00:00 4,4 2,9 2 1 - - NE 0 0,0
14.01.2021 17:00:00 5,7 3,6 8 4 - - NNW 0 0,0
14.01.2021 16:00:00 7,1 3,9 8 4 - - NW 18 0,0
14.01.2021 15:00:00 8,1 5,0 8 4 - - NW 42 0,0
14.01.2021 14:00:00 8,7 5,0 9 5 - - NW 48 0,0
14.01.2021 13:00:00 8,1 5,8 9 5 - - NW 6 0,0
14.01.2021 12:00:00 7,3 5,3 8 4 - - NW 6 0,0
14.01.2021 11:00:00 7,0 5,6 9 5 - - NW 0 0,0
14.01.2021 10:00:00 6,9 5,9 11 6 - - NNW 0 0,2
14.01.2021 09:00:00 6,9 6,5 9 5 - - NW 0 0,0
14.01.2021 08:00:00 7,3 6,4 9 5 - - NW 0 0,0
14.01.2021 07:00:00 7,4 6,8 9 5 - - NNW 0 0,0
14.01.2021 06:00:00 7,5 7,0 9 5 - - NW 0 0,0
14.01.2021 05:00:00 7,8 7,3 11 6 - - NW 0 0,2
14.01.2021 04:00:00 8,4 7,9 11 6 - - NW 0 0,6
14.01.2021 03:00:00 9,0 8,7 9 5 - - NW 0 1,2
14.01.2021 02:00:00 9,3 9,0 9 5 - - NW 0 0,8
14.01.2021 01:00:00 9,7 9,6 8 4 - - WNW 0 0,6
14.01.2021 00:00:00 9,8 9,7 5 3 - - W - 0,2
13.01.2021 23:00:00 10,0 9,8 8 4 - - W 0 0,0
13.01.2021 22:00:00 10,2 10,1 11 6 - - W 0 0,0
13.01.2021 21:00:00 10,3 10,1 9 5 - - WSW 0 0,0
13.01.2021 20:00:00 10,1 9,9 9 5 - - WSW 0 0,0
13.01.2021 19:00:00 10,1 9,9 11 6 - - WSW 0 0,0
13.01.2021 18:00:00 9,9 9,7 5 3 - - WSW 0 0,2
13.01.2021 17:00:00 9,9 9,7 8 4 - - SW 0 0,6
13.01.2021 16:00:00 10,1 9,7 2 1 - - SSW 0 1,8
13.01.2021 15:00:00 10,4 9,7 9 5 - - W 0 0,2
13.01.2021 14:00:00 10,5 9,9 9 5 - - WSW 0 0,0
13.01.2021 13:00:00 10,6 10,5 9 5 - - WSW 0 0,2
13.01.2021 12:00:00 9,5 9,5 5 3 - - W 0 0,0
13.01.2021 11:00:00 8,8 8,8 4 2 - - SW 0 0,2
13.01.2021 10:00:00 8,7 8,6 8 4 - - WSW 0 0,8
13.01.2021 09:00:00 7,3 7,3 2 1 - - SE 0 0,8
13.01.2021 08:00:00 7,0 7,0 2 1 - - E 0 0,2
13.01.2021 07:00:00 6,8 6,8 0 0 - - N 0 1,0
13.01.2021 06:00:00 6,5 6,5 0 0 - - N 0 1,6
13.01.2021 05:00:00 6,0 6,0 2 1 - - SSE 0 0,2
13.01.2021 04:00:00 5,3 5,2 4 2 - - SE 0 0,2
13.01.2021 03:00:00 4,7 4,6 4 2 - - SSE 0 0,4
13.01.2021 02:00:00 4,2 4,0 4 2 - - SSE 0 1,8
13.01.2021 01:00:00 3,6 3,2 4 2 - - S 0 1,0
13.01.2021 00:00:00 3,0 2,4 2 1 - - SE - 0,6
12.01.2021 23:00:00 2,5 1,9 4 2 - - ESE 0 0,4
12.01.2021 22:00:00 2,1 1,3 2 1 - - E 0 0,0
12.01.2021 21:00:00 1,6 0,6 2 1 - - SE 0 0,0
12.01.2021 20:00:00 0,7 0,3 2 1 - - SSE 0 0,0
12.01.2021 19:00:00 0,3 -0,2 2 1 - - E 0 0,0
12.01.2021 18:00:00 0,3 -0,4 4 2 - - NE 0 0,0
12.01.2021 17:00:00 1,0 -0,3 0 0 - - N 0 0,0
12.01.2021 16:00:00 2,3 0,9 2 1 - - N 0 0,0
12.01.2021 15:00:00 3,7 1,3 2 1 - - W 0 0,0
12.01.2021 14:00:00 4,8 0,0 2 1 - - SSE 42 0,0
12.01.2021 13:00:00 3,7 1,5 0 0 - - N 0 0,0
12.01.2021 12:00:00 2,8 1,7 2 1 - - SSW 0 0,0
12.01.2021 11:00:00 1,6 0,7 2 1 - - WNW 6 0,0
12.01.2021 10:00:00 1,6 -0,2 9 5 - - E 6 0,0
12.01.2021 09:00:00 -1,3 -1,6 5 3 - - NNE 0 0,0
12.01.2021 08:00:00 -1,1 -1,5 2 1 - - NNE 0 0,0
12.01.2021 07:00:00 0,2 -0,5 2 1 - - NW 0 0,0
12.01.2021 06:00:00 2,2 1,3 2 1 - - NW 0 0,0
12.01.2021 05:00:00 3,9 2,4 9 5 - - N 0 0,0
12.01.2021 04:00:00 5,2 4,8 11 6 - - N 0 0,0
12.01.2021 03:00:00 6,1 6,0 9 5 - - NNW 0 0,4
12.01.2021 02:00:00 6,3 6,2 5 3 - - NW 0 0,8
12.01.2021 01:00:00 6,5 6,4 5 3 - - NW 0 1,0
12.01.2021 00:00:00 6,6 6,5 4 2 - - WNW - 1,4
11.01.2021 23:00:00 6,7 6,5 5 3 - - WNW 0 1,8
11.01.2021 22:00:00 6,7 6,5 4 2 - - W 0 1,2
11.01.2021 21:00:00 6,8 6,6 4 2 - - W 0 1,0
11.01.2021 20:00:00 7,1 6,9 4 2 - - NW 0 1,0
11.01.2021 19:00:00 7,1 6,7 5 3 - - WNW 0 0,4
11.01.2021 18:00:00 7,5 6,8 8 4 - - WNW 0 0,4
11.01.2021 17:00:00 7,9 7,0 9 5 - - WNW 0 1,0
11.01.2021 16:00:00 8,2 7,1 21 11 48 26 WNW 0 2,4
11.01.2021 15:00:00 9,3 8,1 15 8 - - W 0 0,0
11.01.2021 14:00:00 9,1 8,2 21 11 - - WSW 0 0,0
11.01.2021 13:00:00 9,0 8,0 16 9 - - WSW 0 0,0
11.01.2021 12:00:00 8,9 7,5 21 11 - - W 0 0,0
11.01.2021 11:00:00 8,5 7,2 22 12 - - W 0 0,0
11.01.2021 10:00:00 7,6 6,8 18 10 - - WSW 0 0,0
11.01.2021 09:00:00 7,0 6,1 22 12 - - WSW 0 0,0
11.01.2021 08:00:00 7,0 5,5 24 13 - - W 0 0,0
11.01.2021 07:00:00 6,9 5,3 22 12 - - W 0 0,0
11.01.2021 06:00:00 6,5 5,0 18 10 - - W 0 0,0
11.01.2021 05:00:00 6,1 4,8 15 8 - - W 0 0,0
11.01.2021 04:00:00 5,9 4,3 13 7 - - WSW 0 0,0
11.01.2021 03:00:00 6,0 4,1 13 7 - - WSW 0 0,0
11.01.2021 02:00:00 5,8 4,1 15 8 - - WSW 0 0,0
11.01.2021 01:00:00 5,7 4,3 15 8 - - WSW 0 0,0
11.01.2021 00:00:00 5,1 3,9 16 9 - - W - 0,0
10.01.2021 23:00:00 5,2 3,9 15 8 - - W 0 0,0
10.01.2021 22:00:00 5,3 4,1 13 7 - - W 0 0,0
10.01.2021 21:00:00 4,9 3,7 11 6 - - WSW 0 0,0
10.01.2021 20:00:00 4,9 3,4 11 6 - - W 0 0,0
10.01.2021 19:00:00 4,8 3,8 11 6 - - WSW 0 0,0
10.01.2021 18:00:00 4,6 4,0 13 7 - - W 0 0,0
10.01.2021 17:00:00 3,8 3,4 5 3 - - WSW 0 0,0
10.01.2021 16:00:00 4,8 4,3 11 6 - - W 0 0,0
10.01.2021 15:00:00 5,0 4,4 15 8 - - WSW 0 0,0
10.01.2021 14:00:00 4,8 4,3 11 6 - - WSW 0 0,0
10.01.2021 13:00:00 4,5 4,0 11 6 - - WSW 0 0,0
10.01.2021 12:00:00 4,6 4,0 11 6 - - WSW 0 0,0
10.01.2021 11:00:00 3,9 3,7 5 3 - - SW 0 0,0
10.01.2021 10:00:00 3,5 3,4 8 4 - - WSW 0 0,0
10.01.2021 09:00:00 3,3 3,2 5 3 - - WSW 0 0,0
10.01.2021 08:00:00 3,2 3,1 5 3 - - WSW 0 0,0
10.01.2021 07:00:00 3,2 3,0 4 2 - - SW 0 0,0
10.01.2021 06:00:00 3,4 3,2 4 2 - - WSW 0 0,0

tt = temperature
td = dewpoint
ff = wind speed
fx = gusts
dd = wind direction
sd = sunshine duration
rr = precipitation

Next stations